Weather observations for the past three days for
Pagosa Springs, Wolf Creek Pass
Metric (Imperial)
Date Time (mdt) Wind (kph) Vis. (km) Weather Sky Cond. Temperature (ºC) Relative Humidity Wind Chill (°C) Heat Index (°C) Pressure Precipitation (cm)
Air Dwpt 6 hour altimeter (cm) sea level (mb) 1 hr 3 hr 6 hr
Max. Min.
31 00:55 Calm 16.09 Fair CLR 5 3 87% 77.98 0.0
31 00:35 SE 7 16.09 Partly Cloudy SCT120 5 5 100% 4 77.98 0.0
31 00:15 S 6 16.09 Partly Cloudy SCT120 5 4 93% 78.03 0.0
30 23:55 S 7 16.09 Partly Cloudy SCT050 SCT120 5 4 93% 4 78.03 0.0
30 23:35 SE 7 16.09 Thunderstorm SCT041 BKN047 BKN090 5 4 93% 4 78.03 0.0
30 23:15 Calm 16.09 Overcast SCT038 OVC045 6 3 81% 78.03 0.0
30 22:55 W 6 16.09 Overcast SCT035 BKN047 OVC100 5 5 100% 78.03 0.0 0.08
30 22:35 W 11 16.09 Thunderstorm in Vicinity SCT028 BKN055 OVC090 5 5 100% 3 78.03 0.0 0.08
30 22:15 SW 17 G 39 6.44 Thunderstorm in Vicinity SCT023 BKN030 OVC036 5 5 100% 2 78.03 0.0 0.05
30 21:55 W 20 G 31 11.27 Thunderstorm SCT027 BKN035 OVC045 7 4 81% 4 78.03 0.0 0.03
30 21:35 NW 17 G 26 16.09 Thunderstorm in Vicinity BKN029 BKN048 OVC065 8 5 82% 6 77.98 0.0
30 21:15 W 9 16.09 Overcast SCT028 BKN050 OVC075 8 5 82% 7 77.95 0.0
30 20:55 SW 7 16.09 Thunderstorm in Vicinity SCT031 SCT037 BKN080 7 4 81% 6 77.93 0.0
30 20:35 SW 9 16.09 Partly Cloudy SCT035 SCT070 SCT080 7 3 76% 5 77.9 0.0
30 20:15 SW 19 G 28 16.09 Thunderstorm SCT025 SCT036 BKN070 7 4 81% 4 77.9 0.0
30 19:55 W 19 G 33 6.44 Overcast SCT023 BKN031 OVC044 6 5 93% 3 77.9 0.0 0.1
30 19:35 NW 11 G 33 6.44 Thunderstorm BKN031 OVC038 6 3 81% 4 77.9 0.0 0.05
30 19:15 W 7 G 28 16.09 Thunderstorm SCT033 BKN041 BKN050 10 3 62% 9 77.85 0.0
30 18:55 SW 17 G 28 16.09 Thunderstorm in Vicinity SCT036 SCT046 BKN060 11 3 58% 77.83 0.0
30 18:35 SW 20 G 31 16.09 Thunderstorm in Vicinity SCT037 SCT046 BKN060 11 4 62% 77.85 0.0
30 18:15 SW 15 G 31 16.09 Partly Cloudy SCT039 11 4 62% 77.85 0.0
30 17:55 SW 24 G 31 16.09 Thunderstorm in Vicinity CLR 11 3 58% 77.83 0.0
30 17:35 SW 28 G 41 16.09 Thunderstorm in Vicinity SCT044 12 3 54% 77.83 0.0
30 17:15 SW 26 G 41 16.09 Thunderstorm in Vicinity SCT034 SCT039 SCT045 12 3 54% 77.83 0.0
30 16:55 SW 28 G 41 16.09 Partly Cloudy SCT034 SCT049 13 4 55% 77.83 0.0
30 16:35 SW 24 G 43 16.09 Mostly Cloudy SCT030 SCT038 BKN055 12 4 58% 77.83 0.0
30 16:15 SW 22 G 41 16.09 Mostly Cloudy SCT030 SCT040 BKN055 12 4 58% 77.85 0.0
30 15:55 SW 22 G 41 16.09 Mostly Cloudy SCT026 SCT031 BKN040 12 4 58% 77.85 0.0
30 15:35 SW 26 G 46 16.09 Mostly Cloudy SCT021 SCT026 BKN031 12 5 63% 77.85 0.0
30 15:15 SW 24 G 41 16.09 Mostly Cloudy SCT021 BKN028 BKN036 12 5 63% 77.88 0.0
30 14:55 SW 20 G 39 16.09 Mostly Cloudy SCT018 SCT024 BKN033 11 6 72% 77.88 0.0
30 14:35 SW 22 G 39 16.09 Mostly Cloudy SCT016 SCT024 BKN030 11 6 72% 77.9 0.0
30 14:15 SW 24 G 37 16.09 Mostly Cloudy SCT014 SCT018 BKN031 11 6 72% 77.93 0.0
30 13:55 SW 24 G 35 16.09 Overcast BKN014 BKN023 OVC034 10 6 76% 7 77.93 0.0
30 13:35 SW 20 G 39 16.09 Overcast BKN014 OVC026 10 6 76% 8 77.95 0.0
30 13:15 SW 22 G 35 16.09 Overcast OVC016 10 6 76% 7 77.95 0.0
30 12:55 SW 19 G 35 16.09 Mostly Cloudy BKN014 BKN024 BKN030 11 6 72% 77.95 0.0
30 12:35 SW 24 G 39 16.09 Mostly Cloudy SCT010 BKN018 BKN024 10 6 76% 7 77.95 0.0
30 12:15 SW 19 G 43 16.09 Mostly Cloudy BKN010 BKN014 BKN020 10 6 76% 8 77.98 0.0
30 11:35 SW 20 G 33 16.09 Overcast BKN010 OVC018 9 6 82% 6 77.95 0.0
30 11:15 SW 19 G 28 16.09 Overcast BKN012 OVC017 8 6 87% 5 77.95 0.0
30 10:55 SW 24 G 31 16.09 Overcast SCT010 BKN015 OVC025 8 6 87% 5 77.95 0.0
30 10:35 SW 15 G 30 16.09 Overcast SCT011 BKN016 OVC060 8 6 87% 6 77.95 0.0
30 10:15 SW 15 16.09 Mostly Cloudy SCT009 SCT013 BKN024 8 6 87% 6 77.95 0.0
30 09:55 SW 17 16.09 Overcast SCT009 BKN024 OVC055 7 6 93% 4 77.95 0.0
30 09:35 SW 15 16.09 Mostly Cloudy BKN009 BKN028 BKN036 7 6 93% 5 77.93 0.0
30 09:15 SW 20 G 31 16.09 Mostly Cloudy BKN009 BKN028 6 5 93% 3 77.9 0.0
30 08:35 SW 17 16.09 Overcast BKN011 OVC028 6 5 93% 3 77.93 0.0
30 08:15 SW 19 16.09 Mostly Cloudy SCT011 SCT027 BKN039 6 5 93% 3 77.9 0.0
30 07:55 SW 17 16.09 Mostly Cloudy SCT014 SCT030 BKN038 5 5 100% 2 77.9 0.0
30 07:35 SW 17 16.09 Overcast SCT014 BKN029 OVC044 5 5 100% 2 77.9 0.0
30 07:15 SW 13 16.09 Overcast SCT006 BKN027 OVC043 5 5 100% 2 77.9 0.0
30 06:55 SW 15 16.09 Overcast OVC008 5 5 100% 2 77.9 0.0
30 06:35 SW 15 16.09 Overcast BKN008 BKN013 OVC033 5 5 100% 2 77.85 0.0
30 06:15 SW 17 16.09 Overcast BKN008 OVC013 5 5 100% 2 77.88 0.0
30 05:55 SW 17 16.09 Mostly Cloudy BKN010 BKN016 BKN032 5 5 100% 2 77.85 0.0
30 05:35 S 17 G 26 16.09 Partly Cloudy SCT032 SCT042 5 5 100% 2 77.85 0.0
30 05:15 SW 15 16.09 Partly Cloudy SCT040 5 5 100% 2 77.85 0.0
30 04:55 SW 15 16.09 Partly Cloudy SCT040 5 5 100% 2 77.88 0.0
30 04:35 SW 17 G 26 16.09 Partly Cloudy SCT040 5 5 100% 2 77.85 0.0
30 04:15 SW 19 16.09 Partly Cloudy SCT038 5 5 100% 2 77.85 0.0
30 03:55 SW 17 16.09 Fair CLR 5 5 100% 2 77.85 0.0
30 03:35 SW 20 16.09 Fair CLR 5 5 100% 1 77.85 0.0
30 03:15 SW 19 16.09 Fair CLR 5 5 100% 2 77.88 0.0
30 02:55 SW 24 16.09 Fair CLR 5 5 100% 1 77.88 0.0
30 02:35 SW 20 16.09 Fair CLR 5 5 100% 1 77.88 0.0
30 02:15 SW 19 G 26 16.09 Partly Cloudy SCT008 SCT014 5 5 100% 2 77.9 0.0
30 01:55 SW 20 G 33 16.09 Mostly Cloudy SCT008 SCT013 BKN018 5 5 100% 1 77.9 0.0
30 01:35 SW 22 G 35 16.09 Overcast SCT008 BKN012 OVC022 6 5 93% 2 77.93 0.0
30 01:15 SW 24 G 35 16.09 Mostly Cloudy SCT012 BKN022 6 5 93% 2 77.93 0.0
30 00:55 SW 24 G 39 16.09 Fair CLR 6 5 93% 2 77.9 0.0
30 00:35 SW 22 G 35 16.09 Fair CLR 6 5 93% 2 77.93 0.0
30 00:15 SW 19 16.09 Fair CLR 6 4 87% 3 77.93 0.0
29 23:55 SW 19 16.09 Partly Cloudy SCT048 SCT060 SCT080 6 4 87% 3 77.93 0.0
29 23:35 S 15 16.09 Overcast SCT048 BKN060 OVC085 6 5 93% 3 77.95 0.0
29 23:15 SW 28 G 39 16.09 Mostly Cloudy SCT024 SCT070 BKN085 7 4 81% 3 77.95 0.0
29 22:55 SW 28 G 43 16.09 Mostly Cloudy SCT022 SCT027 BKN034 7 4 81% 3 77.98 0.0
29 22:35 SW 30 G 48 16.09 Mostly Cloudy SCT029 BKN036 BKN047 7 3 76% 3 77.98 0.0
29 22:15 SW 44 G 59 16.09 Overcast and Windy SCT029 SCT042 OVC055 8 3 71% 3 77.98 0.0
29 21:55 SW 28 G 43 16.09 Overcast OVC055 9 3 66% 6 78 0.0
29 21:35 SW 24 G 35 16.09 Overcast BKN055 OVC065 10 2 58% 7 77.98 0.0
29 21:15 SW 22 G 35 16.09 Mostly Cloudy SCT060 BKN070 BKN085 10 2 58% 7 77.95 0.0
29 20:55 SW 15 G 30 16.09 Partly Cloudy SCT060 SCT070 SCT085 10 3 62% 8 77.95 0.0
29 20:35 SW 24 G 41 16.09 Fair CLR 10 3 62% 7 77.9 0.0
29 20:15 SW 22 G 39 16.09 Partly Cloudy SCT110 10 3 62% 7 77.9 0.0
29 19:55 SW 28 G 37 16.09 Partly Cloudy SCT040 SCT075 SCT080 10 3 62% 7 77.95 0.0
29 19:35 SW 24 G 35 16.09 Partly Cloudy SCT085 10 3 62% 7 77.95 0.0
29 19:15 SW 28 G 46 16.09 Partly Cloudy SCT085 11 3 58% 77.9 0.0
29 18:55 SW 33 G 52 16.09 Fair and Breezy CLR 11 3 58% 77.9 0.0
29 18:35 SW 31 G 50 16.09 Fair CLR 11 3 58% 77.9 0.0
29 18:15 SW 31 G 52 16.09 Fair CLR 13 3 51% 77.88 0.0
29 17:55 SW 30 G 44 16.09 Fair CLR 12 3 54% 77.88 0.0
29 17:35 SW 28 G 44 16.09 Fair CLR 12 3 54% 77.88 0.0
29 17:15 SW 37 G 48 16.09 Fair and Breezy CLR 12 3 54% 77.9 0.0
29 16:55 SW 33 G 54 16.09 Partly Cloudy and Breezy SCT047 SCT055 12 3 54% 77.93 0.0
29 16:35 SW 41 G 54 16.09 Mostly Cloudy and Breezy SCT040 SCT045 BKN055 12 3 54% 77.93 0.0
29 15:55 SW 24 G 44 16.09 Mostly Cloudy SCT038 BKN048 BKN060 12 5 63% 77.98 0.0
29 15:35 SW 20 G 35 16.09 Mostly Cloudy SCT038 SCT048 BKN050 12 5 63% 78 0.0
29 15:15 SW 22 G 43 16.09 Partly Cloudy SCT045 SCT060 SCT070 13 5 59% 78 0.0
29 14:55 SW 35 G 46 16.09 Mostly Cloudy and Breezy SCT036 SCT046 BKN070 12 5 63% 78 0.0
29 14:35 SW 30 G 48 16.09 Partly Cloudy SCT030 SCT049 SCT065 13 5 59% 78.03 0.0
29 14:15 SW 33 G 52 16.09 Thunderstorm in Vicinity and Breezy SCT027 BKN033 OVC075 11 6 72% 78.03 0.0
29 13:55 SW 37 G 57 16.09 Thunderstorm and Breezy SCT035 BKN042 OVC065 11 5 67% 78.03 0.0
29 13:35 SW 31 G 54 16.09 Thunderstorm in Vicinity SCT037 BKN070 OVC080 11 5 67% 78.03 0.0
29 13:15 SW 24 G 39 16.09 Thunderstorm SCT037 BKN060 OVC080 11 5 67% 78.05 0.0
29 12:55 SW 24 G 41 16.09 Overcast BKN038 OVC047 10 5 71% 7 78.08 0.0
29 12:35 SW 24 G 33 16.09 Overcast SCT038 BKN060 OVC080 12 4 58% 78.13 0.0
29 12:15 SW 28 G 43 16.09 Overcast SCT043 SCT050 OVC080 13 4 55% 78.13 0.0
29 11:55 SW 30 G 41 16.09 Mostly Cloudy BKN090 13 4 55% 78.13 0.0
29 11:35 SW 26 G 37 16.09 Partly Cloudy SCT100 13 4 55% 78.13 0.0
29 11:15 W 22 G 35 16.09 Fair CLR 13 3 51% 78.13 0.0
29 10:55 SW 20 G 30 16.09 Fair CLR 13 4 55% 78.13 0.0
29 10:35 SW 20 G 35 16.09 Fair CLR 11 3 58% 78.13 0.0
29 10:15 SW 22 G 31 16.09 Fair CLR 11 3 58% 78.13 0.0
29 09:55 SW 17 G 30 16.09 Fair CLR 10 3 62% 8 78.11 0.0
29 09:35 W 20 G 31 16.09 Partly Cloudy SCT095 10 3 62% 8 78.08 0.0
29 09:15 SW 15 16.09 Fair CLR 10 3 62% 8 78.08 0.0
29 08:55 W 20 G 28 16.09 Fair CLR 8 2 66% 5 78.11 0.0
29 08:35 SW 33 G 54 16.09 Partly Cloudy and Breezy SCT055 8 2 66% 4 78.08 0.0
29 08:15 W 20 G 43 16.09 Partly Cloudy SCT080 8 2 66% 5 78.08 0.0
29 07:55 W 22 G 30 16.09 Mostly Cloudy BKN080 7 3 76% 4 78.16 0.0
29 07:35 W 17 11.27 Overcast SCT034 BKN060 OVC080 7 3 76% 4 78.16 0.0
29 07:15 W 15 16.09 Overcast SCT060 OVC070 7 3 76% 5 78.16 0.0
29 06:55 SW 20 16.09 Overcast SCT050 OVC070 7 3 76% 4 78.13 0.0
29 06:35 SW 20 G 30 16.09 Mostly Cloudy BKN055 BKN070 7 2 71% 4 78.08 0.0
29 06:15 SW 20 G 28 16.09 Partly Cloudy SCT055 7 2 71% 4 78.08 0.0
29 05:55 SW 22 16.09 Fair CLR 7 2 71% 4 78.08 0.0
29 05:35 SW 19 G 28 16.09 Fair CLR 8 2 66% 5 78.08 0.0
29 05:15 W 17 16.09 Fair CLR 8 2 66% 6 78.08 0.0
29 04:55 SW 11 16.09 Fair CLR 8 2 66% 6 78.08 0.0
29 04:35 SW 13 16.09 Fair CLR 9 2 62% 7 78.08 0.0
29 04:15 SW 13 16.09 Fair CLR 10 2 58% 8 78.08 0.0
29 03:55 W 13 16.09 Fair CLR 10 2 58% 8 78.08 0.0
29 03:35 W 11 16.09 Partly Cloudy SCT090 SCT110 10 2 58% 9 78.08 0.0
29 03:15 W 11 16.09 Overcast BKN090 OVC110 10 2 58% 9 78.11 0.0
29 02:55 W 9 16.09 Overcast SCT070 OVC100 10 2 58% 9 78.13 0.0
29 02:35 W 13 16.09 Overcast BKN070 BKN080 OVC100 10 2 58% 8 78.13 0.0
29 02:15 W 13 16.09 Overcast SCT070 OVC100 10 2 58% 8 78.13 0.0
29 01:55 W 11 16.09 Overcast OVC100 10 2 58% 9 78.13 0.0
29 01:35 SW 7 16.09 Mostly Cloudy BKN110 9 2 62% 8 78.18 0.0
29 01:15 SW 9 16.09 Partly Cloudy SCT060 SCT110 9 2 62% 8 78.18 0.0
29 00:55 SW 11 16.09 Fair CLR 8 2 66% 6 78.16 0.0
29 00:35 SW 17 16.09 Fair CLR 9 2 62% 7 78.16 0.0
29 00:15 SW 20 G 41 16.09 Partly Cloudy SCT075 10 2 58% 8 78.16 0.0
28 23:55 SW 24 G 41 16.09 Partly Cloudy SCT075 10 2 58% 7 78.13 0.0
28 23:35 SW 22 G 31 16.09 Fair CLR 10 1 54% 7 78.13 0.0
28 23:15 SW 11 16.09 Partly Cloudy SCT095 10 2 58% 9 78.16 0.0
28 22:55 SW 15 16.09 Partly Cloudy SCT095 11 2 54% 78.16 0.0
28 22:35 SW 17 16.09 Fair CLR 11 2 54% 78.16 0.0
28 22:15 SW 17 16.09 Fair CLR 11 2 54% 78.16 0.0
28 21:55 SW 13 16.09 Fair CLR 11 1 50% 78.16 0.0
28 21:35 SW 13 16.09 Fair CLR 11 1 50% 78.16 0.0
28 21:15 S 15 16.09 Partly Cloudy SCT075 SCT090 11 1 50% 78.16 0.0
28 20:55 Calm 16.09 Mostly Cloudy SCT075 BKN090 11 1 50% 78.16 0.0
28 20:35 SE 7 16.09 Partly Cloudy SCT080 11 2 54% 78.16 0.0
28 20:15 Calm 16.09 Partly Cloudy SCT085 11 3 58% 78.13 0.0
28 19:55 E 7 16.09 Fair CLR 11 3 58% 78.16 0.0
28 19:35 NE 6 16.09 Fair CLR 10 2 58% 78.16 0.0
28 19:15 N 7 16.09 Fair CLR 11 2 54% 78.16 0.0
28 18:55 NE 9 16.09 Fair CLR 11 3 58% 78.18 0.0
28 18:35 NE 7 16.09 Fair CLR 12 3 54% 78.18 0.0
28 18:15 Calm 16.09 Fair CLR 11 3 58% 78.21 0.0
28 17:55 NE 7 16.09 Fair CLR 12 4 58% 78.21 0.0
28 17:35 NE 15 16.09 Fair CLR 11 4 62% 78.21 0.0
28 17:15 N 15 16.09 Fair CLR 12 4 58% 78.21 0.0
28 16:55 NE 13 G 26 16.09 Partly Cloudy SCT041 SCT065 SCT095 12 3 54% 78.21 0.0
28 16:35 N 17 G 37 16.09 Thunderstorm in Vicinity SCT042 BKN065 OVC095 11 2 54% 78.21 0.0
28 16:15 W 9 G 26 16.09 Overcast BKN085 OVC110 15 2 42% 78.21 0.0
28 15:55 SW 24 G 37 16.09 Overcast SCT046 SCT070 OVC110 16 1 36% 78.18 0.0
28 15:35 S 24 G 35 16.09 Mostly Cloudy SCT042 SCT050 BKN070 16 2 39% 78.18 0.0
28 15:15 W 22 G 41 16.09 Fair CLR 17 2 37% 78.21 0.0
28 14:55 SW 17 G 37 16.09 Thunderstorm in Vicinity SCT055 17 2 37% 78.21 0.0
28 14:35 SW 17 G 28 16.09 Fair CLR 17 3 39% 78.23 0.0
28 14:15 SW 15 G 30 16.09 Partly Cloudy SCT090 16 3 42% 78.26 0.0
28 13:55 SW 17 G 31 16.09 Partly Cloudy SCT080 15 3 45% 78.26 0.0
28 13:35 SW 26 G 44 16.09 Fair CLR 16 3 42% 78.26 0.0
28 13:15 SW 17 G 43 16.09 Fair CLR 16 3 42% 78.28 0.0
28 12:55 SW 19 G 35 16.09 Fair CLR 16 3 42% 78.31 0.0
28 12:15 SW 19 G 26 16.09 Fair CLR 14 4 51% 78.36 0.0
28 11:55 SW 20 G 30 16.09 Fair CLR 12 3 54% 78.36 0.0
28 11:35 SW 13 G 30 16.09 Fair CLR 15 4 48% 78.36 0.0
28 11:15 SW 20 16.09 Fair CLR 13 3 51% 78.36 0.0
28 10:55 SW 15 16.09 Fair CLR 14 4 51% 78.36 0.0
28 10:35 SW 13 16.09 Fair CLR 12 3 54% 78.36 0.0
28 10:15 SW 13 16.09 Fair CLR 13 3 51% 78.33 0.0
28 09:55 SW 19 16.09 Fair CLR 12 3 54% 78.33 0.0
28 09:35 SW 17 16.09 Fair CLR 11 3 58% 78.33 0.0
28 09:15 SW 19 16.09 Partly Cloudy SCT090 10 3 62% 8 78.33 0.0
28 08:55 SW 17 G 26 16.09 Partly Cloudy SCT090 10 3 62% 8 78.33 0.0
28 08:35 SW 17 16.09 Fair CLR 10 3 62% 8 78.33 0.0
28 08:15 SW 15 16.09 Fair CLR 10 2 58% 8 78.31 0.0
28 07:55 SW 17 16.09 Fair CLR 9 2 62% 7 78.31 0.0
28 07:35 SW 17 16.09 Fair CLR 8 2 66% 6 78.28 0.0
28 07:15 SW 19 16.09 Fair CLR 8 2 66% 5 78.28 0.0
28 06:55 SW 20 16.09 Fair CLR 8 2 66% 5 78.26 0.0
28 06:35 SW 20 16.09 Fair CLR 8 2 66% 5 78.26 0.0
28 06:15 SW 20 16.09 Fair CLR 8 2 66% 5 78.23 0.0
28 05:55 SW 22 16.09 Fair CLR 8 2 66% 5 78.23 0.0
28 05:35 SW 22 16.09 Fair CLR 8 2 66% 5 78.21 0.0
28 05:15 SW 24 G 30 16.09 Fair CLR 8 2 66% 5 78.21 0.0
28 04:55 SW 22 G 33 16.09 Fair CLR 8 2 66% 5 78.21 0.0
28 04:35 SW 20 16.09 Fair CLR 8 2 66% 5 78.21 0.0
28 04:15 SW 22 16.09 Fair CLR 8 2 66% 5 78.21 0.0
28 03:55 SW 20 16.09 Fair CLR 8 2 66% 5 78.23 0.0
28 03:35 SW 20 16.09 Fair CLR 8 1 62% 5 78.26 0.0
28 03:15 SW 19 16.09 Partly Cloudy SCT100 8 1 62% 5 78.26 0.0
28 02:55 SW 17 16.09 Partly Cloudy SCT090 9 1 58% 7 78.26 0.0
28 02:35 SW 17 16.09 Fair CLR 10 1 54% 8 78.28 0.0
28 02:15 SW 15 16.09 Fair CLR 10 1 54% 8 78.28 0.0
28 01:55 SW 13 16.09 Fair CLR 10 1 54% 8 78.28 0.0
28 01:35 SW 6 16.09 Fair CLR 11 1 50% 78.28 0.0
28 01:15 SW 6 16.09 Partly Cloudy SCT090 11 1 50% 78.28 0.0
Date Time (mdt) Wind (kph) Vis. (km) Weather Sky Cond. Air Dwpt Max. Min. Relative Humidity Wind Chill (°C) Heat Index (°C) altimeter (cm) sea level (mb) 1 hr 3 hr 6 hr
6 hour
Temperature (ºC) Pressure Precipitation (cm)